Time;durP1;ratioP1;P1;durP2;ratioP2;P2;SDS_P1;SDS_P2;PMS_P1;PMS_P2;Temp;Humidity;BMP_temperature;BMP_pressure;BME280_temperature;BME280_humidity;BME280_pressure;Samples;Min_cycle;Max_cycle;Signal;HPM_P1;HPM_P2
2022/03/22 00:02:10;;;;;;;;;22.75;20.50;;;;;12.61;53.39;101892.81;4922404;28;45164;-74
2022/03/22 00:04:35;;;;;;;;;21.25;21.00;;;;;12.58;53.17;101890.25;4921931;28;45358;-72
2022/03/22 00:07:02;;;;;;;;;24.00;20.25;;;;;12.51;53.32;101886.94;4920492;28;45254;-73
2022/03/22 00:09:27;;;;;;;;;25.25;20.75;;;;;12.50;53.67;101885.22;4922147;28;45348;-69
2022/03/22 00:11:53;;;;;;;;;21.75;19.00;;;;;12.49;53.16;101894.03;4920426;28;45622;-72
2022/03/22 00:14:18;;;;;;;;;23.50;21.00;;;;;12.48;53.27;101896.69;4920853;28;45404;-64
2022/03/22 00:16:44;;;;;;;;;19.25;16.75;;;;;12.46;53.09;101899.41;4918973;28;45559;-66
2022/03/22 00:19:09;;;;;;;;;17.50;14.75;;;;;12.26;53.30;101866.50;4950096;28;45496;-70
2022/03/22 00:21:35;;;;;;;;;20.75;17.75;;;;;12.41;53.06;101902.16;4919489;28;46769;-67
2022/03/22 00:24:01;;;;;;;;;24.00;21.75;;;;;12.40;53.12;101904.84;4918277;28;45548;-73
2022/03/22 00:26:27;;;;;;;;;23.75;19.50;;;;;12.38;52.92;101910.16;4918366;28;46482;-73
2022/03/22 00:28:53;;;;;;;;;20.50;17.75;;;;;12.33;53.06;101901.50;4921128;28;45328;-70
2022/03/22 00:31:18;;;;;;;;;24.75;22.50;;;;;12.27;53.21;101894.63;4925324;28;45259;-72
2022/03/22 00:33:44;;;;;;;;;25.00;19.50;;;;;12.30;53.43;101909.47;4929032;28;45315;-74
2022/03/22 00:36:10;;;;;;;;;27.75;21.00;;;;;12.24;53.19;101899.97;4930770;28;45342;-74
2022/03/22 00:38:36;;;;;;;;;19.75;15.75;;;;;12.23;53.40;101907.91;4925815;28;45244;-58
2022/03/22 00:41:02;;;;;;;;;24.25;20.00;;;;;12.23;53.28;101913.19;4925338;28;45321;-72
2022/03/22 00:43:28;;;;;;;;;24.75;20.25;;;;;12.19;53.26;101915.03;4924528;28;45303;-68
2022/03/22 00:45:54;;;;;;;;;25.25;21.00;;;;;12.13;53.38;101913.44;4930035;28;45414;-73
2022/03/22 00:48:20;;;;;;;;;26.00;19.00;;;;;12.16;52.98;101916.88;4925434;28;45374;-69
2022/03/22 00:50:51;;;;;;;;;20.00;19.00;;;;;12.14;53.15;101914.28;4925123;28;45302;-72
2022/03/22 00:53:18;;;;;;;;;21.25;20.00;;;;;12.06;52.99;101908.31;4924700;28;45319;-74
2022/03/22 00:55:45;;;;;;;;;25.00;21.25;;;;;12.09;52.96;101919.69;4924407;28;46990;-73
2022/03/22 00:58:10;;;;;;;;;20.00;17.25;;;;;12.05;53.05;101914.50;4924449;28;45359;-73
2022/03/22 01:00:37;;;;;;;;;22.25;19.75;;;;;12.04;53.00;101911.03;4925487;28;45307;-72
2022/03/22 01:03:04;;;;;;;;;22.25;21.00;;;;;12.01;53.17;101912.84;4925607;28;45639;-74
2022/03/22 01:05:31;;;;;;;;;22.00;18.50;;;;;11.96;53.03;101905.91;4925317;28;46150;-74
2022/03/22 01:07:59;;;;;;;;;21.25;16.00;;;;;11.96;52.75;101912.94;4926590;28;45348;-73
2022/03/22 01:10:27;;;;;;;;;22.25;18.50;;;;;11.94;52.39;101906.84;4925978;28;45449;-73
2022/03/22 01:12:53;;;;;;;;;21.75;18.50;;;;;11.93;52.82;101913.03;4926176;28;45489;-74
2022/03/22 01:15:28;;;;;;;;;20.00;17.00;;;;;11.90;52.80;101913.09;4925798;28;46563;-73
2022/03/22 01:17:54;;;;;;;;;21.25;21.00;;;;;11.85;52.30;101907.94;4925167;28;45325;-73
2022/03/22 01:20:22;;;;;;;;;19.50;17.25;;;;;11.83;52.65;101904.47;4925783;28;45300;-73
2022/03/22 01:22:49;;;;;;;;;24.75;19.75;;;;;11.83;52.47;101904.47;4924342;28;45462;-69
2022/03/22 01:25:17;;;;;;;;;25.50;20.25;;;;;11.80;52.65;101905.41;4938404;28;46791;-72
2022/03/22 01:27:51;;;;;;;;;20.75;20.75;;;;;11.79;52.53;101903.69;4956219;28;45528;-74
2022/03/22 01:30:21;;;;;;;;;19.25;17.25;;;;;11.75;52.73;101902.03;4925201;28;45303;-69
2022/03/22 01:32:48;;;;;;;;;21.00;18.25;;;;;11.71;52.40;101899.50;4925828;28;45236;-69
2022/03/22 01:35:15;;;;;;;;;23.00;19.25;;;;;11.72;52.33;101902.09;4924395;28;45486;-73
2022/03/22 01:37:41;;;;;;;;;20.25;17.00;;;;;11.68;52.83;101903.94;4924782;28;45478;-70
2022/03/22 01:40:07;;;;;;;;;25.00;21.50;;;;;11.63;52.41;101894.38;4925538;28;45345;-74
2022/03/22 01:42:33;;;;;;;;;20.25;18.50;;;;;11.64;52.61;101904.91;4923562;28;45171;-71
2022/03/22 01:44:59;;;;;;;;;24.00;20.00;;;;;11.62;52.26;101903.19;4922893;28;46124;-72
2022/03/22 01:47:25;;;;;;;;;24.25;22.25;;;;;11.55;52.65;101892.78;4923341;28;45174;-71
2022/03/22 01:49:52;;;;;;;;;22.75;19.75;;;;;11.48;52.76;101890.34;4924530;28;45829;-70
2022/03/22 01:52:20;;;;;;;;;19.75;18.50;;;;;11.50;52.75;101897.31;4921370;28;45251;-73
2022/03/22 01:54:50;;;;;;;;;25.75;22.75;;;;;11.47;52.70;101894.75;4919709;28;46011;-69
2022/03/22 01:57:19;;;;;;;;;22.00;19.75;;;;;11.48;52.82;101898.25;4919921;28;45373;-67
2022/03/22 01:59:45;;;;;;;;;23.00;19.75;;;;;11.46;52.89;101895.66;4920568;28;45470;-73
2022/03/22 02:07:44;;;;;;;;;24.75;23.25;;;;;11.40;52.91;101893.16;4920402;28;45323;-74
2022/03/22 02:10:10;;;;;;;;;23.25;21.00;;;;;11.37;52.10;101888.84;4921441;28;45461;-68
2022/03/22 02:12:35;;;;;;;;;19.25;19.25;;;;;11.29;52.82;101874.97;4921188;28;45368;-73
2022/03/22 02:15:01;;;;;;;;;25.25;20.50;;;;;11.34;52.69;101891.53;4920587;28;46146;-74
2022/03/22 02:17:26;;;;;;;;;25.25;20.50;;;;;11.32;52.63;101889.81;4920516;28;45201;-73
2022/03/22 02:19:53;;;;;;;;;22.50;18.75;;;;;11.31;52.45;101890.72;4921936;28;45233;-72
2022/03/22 02:22:22;;;;;;;;;24.00;19.00;;;;;11.25;52.09;101891.75;4920514;28;45577;-71
2022/03/22 02:24:47;;;;;;;;;20.00;18.50;;;;;11.22;51.97;101884.75;4919764;28;46172;-71
2022/03/22 02:27:13;;;;;;;;;26.00;21.00;;;;;11.23;52.00;101886.50;4919188;28;45410;-71
2022/03/22 02:29:38;;;;;;;;;25.50;21.25;;;;;11.23;52.12;101899.66;4919495;28;45395;-72
2022/03/22 02:32:07;;;;;;;;;23.75;17.25;;;;;11.22;51.71;101895.31;4919969;28;45153;-74
2022/03/22 02:34:35;;;;;;;;;23.50;20.50;;;;;11.20;51.69;101889.19;4919783;28;46174;-72
2022/03/22 02:37:01;;;;;;;;;25.75;21.25;;;;;11.19;51.99;101890.09;4920027;28;45457;-73
2022/03/22 02:39:26;;;;;;;;;23.75;20.50;;;;;11.18;52.36;101893.63;4918360;28;45267;-73
2022/03/22 02:41:52;;;;;;;;;19.75;16.50;;;;;11.07;51.65;101874.56;4919862;28;45594;-74
2022/03/22 02:44:19;;;;;;;;;25.50;20.75;;;;;11.14;51.68;101897.22;4918976;28;46281;-73
2022/03/22 02:46:45;;;;;;;;;27.75;23.00;;;;;11.13;51.94;101897.25;4952444;28;45353;-73
2022/03/22 02:49:11;;;;;;;;;26.50;22.25;;;;;11.10;52.10;101893.78;4919645;28;45339;-72
2022/03/22 02:51:37;;;;;;;;;23.25;20.00;;;;;11.07;51.90;101885.94;4918672;28;45588;-72
2022/03/22 02:54:02;;;;;;;;;19.75;15.75;;;;;10.96;52.11;101880.03;4918612;28;45232;-71
2022/03/22 02:56:28;;;;;;;;;24.00;22.50;;;;;11.06;51.76;101897.38;4919166;28;45257;-70
2022/03/22 02:58:53;;;;;;;;;21.25;20.25;;;;;11.02;51.65;101882.53;4920780;28;45362;-74
2022/03/22 03:01:18;;;;;;;;;21.50;20.75;;;;;11.02;51.92;101893.06;4921420;28;45363;-72
2022/03/22 03:03:44;;;;;;;;;28.25;22.00;;;;;11.01;51.83;101898.41;4918910;28;45312;-71
2022/03/22 03:06:09;;;;;;;;;24.00;20.50;;;;;10.92;51.78;101887.16;4918853;28;45363;-73
2022/03/22 03:08:35;;;;;;;;;27.50;20.25;;;;;10.98;51.99;101903.72;4921100;28;45312;-74
2022/03/22 03:11:00;;;;;;;;;22.50;18.25;;;;;10.95;51.83;101902.88;4919362;28;45321;-72
2022/03/22 03:14:38;;;;;;;;;26.00;23.00;;;;;10.93;52.17;101901.16;4918237;28;45329;-70
2022/03/22 03:16:12;;;;;;;;;23.75;19.75;;;;;10.91;51.91;101903.84;4918369;28;45304;-74
2022/03/22 03:18:37;;;;;;;;;26.50;22.25;;;;;10.87;51.75;101896.03;4918317;28;45264;-70
2022/03/22 03:21:02;;;;;;;;;24.75;22.25;;;;;10.86;51.81;101897.81;4916972;28;45493;-73
2022/03/22 03:23:27;;;;;;;;;24.75;20.00;;;;;10.89;51.91;101904.75;4918532;28;45987;-71
2022/03/22 03:25:53;;;;;;;;;24.50;22.50;;;;;10.85;52.30;101903.97;4918563;28;45830;-71
2022/03/22 03:28:18;;;;;;;;;23.00;23.00;;;;;10.85;51.98;101911.00;4949610;28;45247;-74
2022/03/22 03:30:43;;;;;;;;;26.25;24.50;;;;;10.79;52.38;101904.09;4919266;28;45282;-70
2022/03/22 03:33:09;;;;;;;;;26.00;25.00;;;;;10.81;51.87;101916.31;4920307;28;46687;-72
2022/03/22 03:35:34;;;;;;;;;27.75;24.25;;;;;10.78;51.99;101902.38;4919875;28;45361;-72
2022/03/22 03:37:59;;;;;;;;;33.50;22.25;;;;;10.76;52.38;101909.44;4919378;28;45189;-71
2022/03/22 03:41:53;;;;;;;;;26.00;19.75;;;;;10.71;52.57;101906.88;4918787;28;45188;-73
2022/03/22 03:43:10;;;;;;;;;26.75;21.00;;;;;10.71;52.12;101911.28;4918298;28;45904;-72
2022/03/22 03:48:20;;;;;;;;;27.25;24.75;;;;;10.66;52.51;101901.72;4918924;28;45290;-73
2022/03/22 03:50:45;;;;;;;;;24.50;22.75;;;;;10.65;52.06;101907.88;4918675;28;45605;-62
2022/03/22 03:53:10;;;;;;;;;25.00;24.00;;;;;10.63;52.66;101909.66;4918083;28;45932;-72
2022/03/22 03:55:36;;;;;;;;;19.75;19.50;;;;;10.62;52.21;101914.94;4918792;28;45274;-71
2022/03/22 03:58:01;;;;;;;;;26.75;24.00;;;;;10.57;53.00;101911.53;4919822;28;45488;-72
2022/03/22 04:00:26;;;;;;;;;29.50;25.00;;;;;10.58;52.38;101915.91;4919845;28;45419;-74
2022/03/22 04:02:53;;;;;;;;;27.00;23.50;;;;;10.56;52.47;101913.28;4919089;28;45366;-73
2022/03/22 04:05:18;;;;;;;;;24.50;21.75;;;;;10.55;52.46;101921.22;4948915;28;45405;-61
2022/03/22 04:07:44;;;;;;;;;21.50;20.50;;;;;10.52;52.99;101923.00;4919244;28;45307;-71
2022/03/22 04:10:10;;;;;;;;;23.25;21.50;;;;;10.50;52.92;101924.81;4918959;28;45612;-72
2022/03/22 04:12:43;;;;;;;;;30.25;24.00;;;;;10.49;52.56;101930.06;4919832;28;45380;-71
2022/03/22 04:15:08;;;;;;;;;26.00;21.25;;;;;10.40;52.74;101914.47;4918341;28;45285;-71
2022/03/22 04:17:34;;;;;;;;;29.25;24.75;;;;;10.46;53.37;101927.50;4917736;28;45324;-70
2022/03/22 04:20:00;;;;;;;;;30.50;23.75;;;;;10.41;52.90;101924.09;4919276;28;45426;-70
2022/03/22 04:22:25;;;;;;;;;24.25;22.75;;;;;10.41;53.16;101927.59;4917563;28;46188;-68
2022/03/22 04:24:51;;;;;;;;;28.00;26.00;;;;;10.39;52.74;101926.72;4917585;28;45413;-66
2022/03/22 04:32:44;;;;;;;;;35.75;29.50;;;;;10.33;53.22;101932.94;4918382;28;45430;-69
2022/03/22 04:35:18;;;;;;;;;31.25;27.00;;;;;10.30;53.27;101934.78;4919019;28;45358;-72
2022/03/22 04:37:47;;;;;;;;;27.75;25.00;;;;;10.28;53.32;101929.53;4918538;28;45412;-71
2022/03/22 04:40:14;;;;;;;;;27.75;26.50;;;;;10.23;53.53;101926.13;4920165;28;45281;-70
2022/03/22 04:42:40;;;;;;;;;32.50;29.50;;;;;10.23;53.56;101927.00;4918475;28;47188;-72
2022/03/22 04:45:06;;;;;;;;;34.75;27.25;;;;;10.24;53.58;101935.75;4919465;28;45367;-72
2022/03/22 04:47:32;;;;;;;;;27.25;25.25;;;;;10.22;53.44;101930.53;4920631;28;45256;-67
2022/03/22 04:49:59;;;;;;;;;26.75;26.00;;;;;10.20;53.46;101929.69;4923437;28;45608;-73
2022/03/22 04:57:53;;;;;;;;;25.25;22.50;;;;;10.15;53.87;101943.78;4920078;28;45401;-71
2022/03/22 05:00:19;;;;;;;;;38.25;26.50;;;;;10.15;53.86;101947.31;4918947;28;45479;-58
2022/03/22 05:02:44;;;;;;;;;29.50;27.00;;;;;10.12;53.86;101949.97;4918462;28;45503;-72
2022/03/22 05:05:10;;;;;;;;;28.00;23.50;;;;;10.07;53.21;101933.38;4920332;28;45398;-65
2022/03/22 05:07:35;;;;;;;;;30.50;28.25;;;;;10.09;53.77;101947.41;4918430;28;45468;-70
2022/03/22 05:10:00;;;;;;;;;32.75;27.50;;;;;10.07;53.72;101949.16;4918483;28;45289;-72
2022/03/22 05:12:25;;;;;;;;;25.00;24.25;;;;;9.98;54.00;101937.03;4918509;28;45403;-71
2022/03/22 05:14:51;;;;;;;;;29.50;25.50;;;;;10.02;54.03;101951.00;4918830;28;45360;-72
2022/03/22 05:17:23;;;;;;;;;27.00;23.50;;;;;10.01;54.16;101958.03;4922128;28;45276;-70
2022/03/22 05:19:50;;;;;;;;;29.25;27.00;;;;;10.00;54.03;101963.28;4923290;28;45298;-72
2022/03/22 05:22:18;;;;;;;;;32.50;29.75;;;;;9.99;54.35;101967.69;4924998;28;45406;-72
2022/03/22 05:24:45;;;;;;;;;30.25;24.75;;;;;9.95;53.98;101960.75;4922212;28;45324;-71
2022/03/22 05:27:12;;;;;;;;;31.25;26.25;;;;;9.83;54.32;101955.69;4922792;28;45215;-71
2022/03/22 05:29:37;;;;;;;;;32.50;29.50;;;;;9.88;54.29;101964.38;4922406;28;45501;-66
2022/03/22 05:32:03;;;;;;;;;33.25;27.00;;;;;9.82;54.43;101965.31;4919550;28;45890;-67
2022/03/22 05:34:29;;;;;;;;;27.25;26.25;;;;;9.83;54.26;101968.81;4920485;28;45343;-63
2022/03/22 05:36:55;;;;;;;;;29.25;24.50;;;;;9.83;54.62;101977.56;4921164;28;45320;-72
2022/03/22 05:39:20;;;;;;;;;35.25;29.00;;;;;9.77;54.38;101978.53;4921707;28;45345;-64
2022/03/22 05:41:46;;;;;;;;;30.75;29.00;;;;;9.77;54.72;101980.28;4922826;28;46245;-72
2022/03/22 05:44:12;;;;;;;;;34.25;29.75;;;;;9.76;54.73;101983.78;4922780;28;45345;-62
2022/03/22 05:46:39;;;;;;;;;34.75;27.50;;;;;9.75;54.54;101982.06;4924735;28;45800;-68
2022/03/22 05:49:04;;;;;;;;;30.75;28.75;;;;;9.72;54.99;101988.25;4925537;28;45331;-73
2022/03/22 05:51:29;;;;;;;;;32.50;30.00;;;;;9.63;54.58;101976.09;4922138;28;46014;-73
2022/03/22 05:53:55;;;;;;;;;37.75;31.75;;;;;9.68;54.80;101981.28;4921909;28;45403;-68
2022/03/22 05:56:20;;;;;;;;;34.00;29.75;;;;;9.67;54.74;101983.94;4922707;28;45284;-72
2022/03/22 05:58:45;;;;;;;;;28.25;28.00;;;;;9.60;54.79;101978.75;4920285;28;45271;-69
2022/03/22 06:01:12;;;;;;;;;30.50;27.50;;;;;9.67;54.71;101997.06;4921140;28;46215;-66
2022/03/22 06:03:37;;;;;;;;;34.50;31.50;;;;;9.64;54.69;102006.72;4920589;28;45483;-71
2022/03/22 06:06:03;;;;;;;;;29.75;27.75;;;;;9.64;54.74;102008.50;4920944;28;45329;-72
2022/03/22 06:08:29;;;;;;;;;32.50;28.25;;;;;9.65;54.60;102002.34;4921287;28;45395;-65
2022/03/22 06:10:55;;;;;;;;;37.75;29.25;;;;;9.65;54.49;102012.88;4920396;28;46286;-73
2022/03/22 06:13:20;;;;;;;;;33.50;28.50;;;;;9.64;54.48;102019.88;4920968;28;45325;-71
2022/03/22 06:15:47;;;;;;;;;33.75;30.25;;;;;9.65;54.53;102026.00;4920664;28;51066;-69
2022/03/22 06:18:12;;;;;;;;;32.75;27.00;;;;;9.62;54.50;102021.63;4921100;28;46009;-66
2022/03/22 06:20:41;;;;;;;;;32.50;29.50;;;;;9.65;54.39;102020.75;4919891;28;45401;-71
2022/03/22 06:23:10;;;;;;;;;36.25;30.25;;;;;9.65;54.41;102018.97;4920085;28;45309;-73
2022/03/22 06:25:36;;;;;;;;;32.25;29.50;;;;;9.70;54.59;102020.66;4918461;28;45495;-68
2022/03/22 06:28:04;;;;;;;;;31.25;28.75;;;;;9.72;54.86;102024.16;4922389;28;45414;-73
2022/03/22 06:30:30;;;;;;;;;32.50;29.25;;;;;9.75;54.07;102032.00;4920990;28;46497;-71
2022/03/22 06:32:58;;;;;;;;;32.00;28.50;;;;;9.76;54.03;102031.97;4920709;28;45246;-66
2022/03/22 06:35:33;;;;;;;;;34.00;31.25;;;;;9.81;53.98;102039.78;4920922;28;45453;-58
2022/03/22 06:38:00;;;;;;;;;33.75;29.75;;;;;9.78;53.95;102024.06;4919957;28;45327;-60
2022/03/22 06:40:29;;;;;;;;;31.50;28.50;;;;;9.82;53.47;102028.38;4918889;28;46264;-65
2022/03/22 06:42:58;;;;;;;;;32.50;26.75;;;;;9.83;53.63;102026.63;4919632;28;45319;-63
2022/03/22 06:45:24;;;;;;;;;33.75;27.00;;;;;9.66;53.36;102004.09;4919743;28;45300;-61
2022/03/22 06:47:50;;;;;;;;;32.50;28.75;;;;;9.87;53.70;102037.06;4919590;28;45510;-68
2022/03/22 06:50:18;;;;;;;;;39.25;33.00;;;;;9.89;53.81;102037.91;4918506;28;46251;-71
2022/03/22 06:52:44;;;;;;;;;38.00;32.50;;;;;9.87;55.03;102039.69;4918503;28;45297;-66
2022/03/22 06:55:12;;;;;;;;;41.00;34.75;;;;;9.98;54.35;102047.44;4918512;28;45442;-62
2022/03/22 06:57:38;;;;;;;;;36.50;31.50;;;;;10.02;53.86;102045.63;4919206;28;45468;-62
2022/03/22 07:00:10;;;;;;;;;33.25;29.75;;;;;10.04;53.63;102044.72;4949173;28;46251;-62
2022/03/22 07:02:36;;;;;;;;;32.00;28.50;;;;;10.05;53.20;102048.22;4917243;28;45407;-61
2022/03/22 07:05:03;;;;;;;;;34.00;30.25;;;;;10.07;53.00;102051.69;4918491;28;45376;-61
2022/03/22 07:07:28;;;;;;;;;39.25;30.50;;;;;10.09;53.79;102048.16;4917401;28;45544;-62
2022/03/22 07:09:53;;;;;;;;;36.25;30.25;;;;;10.11;53.35;102052.53;4917199;28;46081;-60
2022/03/22 07:12:19;;;;;;;;;33.25;30.50;;;;;10.17;53.21;102047.19;4919181;28;45443;-60
2022/03/22 07:14:44;;;;;;;;;34.25;30.75;;;;;10.19;52.49;102048.91;4918555;28;45342;-62
2022/03/22 07:17:10;;;;;;;;;39.75;34.50;;;;;10.21;52.99;102056.75;4918315;28;45530;-61
2022/03/22 07:19:37;;;;;;;;;38.25;32.00;;;;;10.22;53.33;102046.22;4918617;28;46463;-64
2022/03/22 07:22:04;;;;;;;;;36.25;33.25;;;;;10.05;52.77;102014.91;4920160;28;45349;-65
2022/03/22 07:24:29;;;;;;;;;35.50;32.75;;;;;10.33;52.34;102043.41;4918661;28;45209;-68
2022/03/22 07:26:55;;;;;;;;;39.50;35.25;;;;;10.40;52.92;102053.88;4918871;28;45611;-66
2022/03/22 07:29:21;;;;;;;;;43.50;34.25;;;;;10.44;52.70;102056.44;4918139;28;45294;-65
2022/03/22 07:31:47;;;;;;;;;37.50;32.50;;;;;10.51;52.17;102057.19;4918654;28;46027;-73
2022/03/22 07:34:17;;;;;;;;;41.75;34.75;;;;;10.47;52.28;102045.00;4918505;28;45196;-71
2022/03/22 07:36:52;;;;;;;;;41.50;34.75;;;;;10.58;52.38;102060.63;4918737;28;45336;-71
2022/03/22 07:39:19;;;;;;;;;41.75;33.75;;;;;10.64;51.54;102061.41;4918025;28;45566;-71
2022/03/22 07:41:46;;;;;;;;;37.25;32.50;;;;;10.69;51.82;102055.19;4918870;28;45237;-67
2022/03/22 07:44:12;;;;;;;;;38.00;33.00;;;;;10.72;52.17;102055.97;4919629;28;45744;-68
2022/03/22 07:46:39;;;;;;;;;41.50;34.50;;;;;10.78;51.80;102060.28;4919741;28;45400;-65
2022/03/22 07:54:32;;;;;;;;;38.75;33.25;;;;;10.84;51.15;102061.94;4918566;28;45352;-72
2022/03/22 07:56:59;;;;;;;;;36.00;32.50;;;;;10.86;51.55;102054.88;4921763;28;45171;-67
2022/03/22 07:59:27;;;;;;;;;35.50;31.75;;;;;10.97;51.24;102063.44;4918283;28;45690;-69
2022/03/22 08:01:52;;;;;;;;;34.50;31.00;;;;;11.03;51.07;102065.13;4917792;28;45317;-65
2022/03/22 08:04:18;;;;;;;;;40.00;35.25;;;;;11.10;50.12;102069.38;4918775;28;45280;-63
2022/03/22 08:06:44;;;;;;;;;38.75;33.00;;;;;11.18;50.61;102069.25;4918682;28;45512;-64
2022/03/22 08:09:09;;;;;;;;;43.50;35.00;;;;;11.20;50.17;102064.81;4917791;28;46282;-66
2022/03/22 08:11:35;;;;;;;;;41.25;36.50;;;;;11.32;49.79;102076.84;4917192;28;45332;-62
2022/03/22 08:14:02;;;;;;;;;36.25;31.50;;;;;11.38;49.77;102074.09;4918361;28;45353;-60
2022/03/22 08:16:28;;;;;;;;;46.25;33.25;;;;;11.46;49.03;102069.53;4918020;28;45307;-57
2022/03/22 08:18:54;;;;;;;;;30.00;29.50;;;;;11.47;49.54;102063.38;4917368;28;45426;-60
2022/03/22 08:21:20;;;;;;;;;36.50;32.25;;;;;11.58;49.04;102078.97;4947915;28;45274;-56
2022/03/22 08:23:45;;;;;;;;;31.75;29.75;;;;;11.65;48.69;102066.53;4917181;28;45347;-63
2022/03/22 08:26:10;;;;;;;;;36.25;31.25;;;;;11.72;48.30;102081.34;4917511;28;45554;-58
2022/03/22 08:28:36;;;;;;;;;42.25;33.00;;;;;11.80;47.58;102078.53;4917334;28;46321;-59
2022/03/22 08:31:02;;;;;;;;;32.75;31.00;;;;;11.87;47.55;102076.66;4917707;28;45435;-68
2022/03/22 08:33:27;;;;;;;;;35.25;31.50;;;;;11.94;47.35;102075.63;4968916;28;45524;-74
2022/03/22 08:35:53;;;;;;;;;29.50;28.25;;;;;12.01;46.04;102081.63;4940268;28;45606;-76
2022/03/22 08:38:20;;;;;;;;;35.50;30.50;;;;;12.05;46.64;102073.63;4937212;28;45876;-61
2022/03/22 08:40:47;;;;;;;;;28.25;27.50;;;;;12.15;45.18;102076.06;4967930;28;45361;-73
2022/03/22 08:43:12;;;;;;;;;34.75;28.50;;;;;12.19;44.42;102073.31;4940718;28;45199;-70
2022/03/22 08:45:38;;;;;;;;;34.25;31.50;;;;;12.29;44.24;102081.88;4934019;28;45543;-66
2022/03/22 08:48:09;;;;;;;;;33.75;29.00;;;;;12.38;43.83;102081.66;4933628;28;46217;-69
2022/03/22 08:50:36;;;;;;;;;31.25;28.00;;;;;12.48;43.25;102076.16;4936624;28;45388;-71
2022/03/22 08:53:02;;;;;;;;;28.75;28.75;;;;;12.57;42.29;102075.94;4939224;28;45394;-71
2022/03/22 08:55:27;;;;;;;;;27.00;25.25;;;;;12.67;42.26;102073.94;4942197;28;45390;-65
2022/03/22 08:57:53;;;;;;;;;33.25;28.25;;;;;12.77;42.11;102074.59;4939982;28;46119;-68
2022/03/22 09:00:20;;;;;;;;;25.75;25.50;;;;;12.89;40.98;102078.69;4939205;28;45249;-66
2022/03/22 09:02:48;;;;;;;;;27.00;20.00;;;;;13.00;40.63;102069.59;4939955;28;45430;-69
2022/03/22 09:08:01;;;;;;;;;27.50;20.75;;;;;13.24;38.67;102075.09;4939191;28;45819;-70
2022/03/22 09:10:27;;;;;;;;;24.50;21.00;;;;;13.35;37.97;102079.22;4939671;28;45285;-73
2022/03/22 09:12:54;;;;;;;;;25.00;23.00;;;;;13.47;37.50;102080.69;4939772;28;45199;-70
2022/03/22 09:15:22;;;;;;;;;23.50;22.00;;;;;13.58;36.84;102083.91;4940241;28;45568;-71
2022/03/22 09:17:49;;;;;;;;;21.75;20.75;;;;;13.70;35.90;102075.59;4942515;28;46956;-72
2022/03/22 09:20:15;;;;;;;;;27.00;22.00;;;;;13.81;35.41;102091.16;4941881;28;45402;-67
2022/03/22 09:22:45;;;;;;;;;19.25;19.25;;;;;13.89;34.20;102088.28;4940215;28;45436;-73
2022/03/22 09:25:11;;;;;;;;;24.25;22.50;;;;;13.96;34.04;102083.69;4939397;28;45404;-71
2022/03/22 09:27:38;;;;;;;;;24.50;18.00;;;;;14.06;34.79;102085.13;4939139;28;45364;-73
2022/03/22 09:30:05;;;;;;;;;25.75;21.75;;;;;14.12;34.15;102074.34;4938914;28;45390;-71
2022/03/22 09:32:31;;;;;;;;;23.50;22.00;;;;;14.24;35.01;102080.19;4939189;28;45281;-70
2022/03/22 09:34:59;;;;;;;;;26.25;21.75;;;;;14.34;34.87;102084.25;4953950;28;45234;-74
2022/03/22 09:37:24;;;;;;;;;27.00;24.25;;;;;14.43;34.90;102086.59;4938894;28;46203;-74
2022/03/22 09:39:50;;;;;;;;;22.25;21.00;;;;;14.38;34.88;102059.41;4940065;28;45297;-65
2022/03/22 09:42:16;;;;;;;;;24.00;22.50;;;;;14.61;34.26;102084.28;4939747;28;45342;-74
2022/03/22 09:44:52;;;;;;;;;23.00;19.25;;;;;14.67;33.74;102076.13;4939091;28;45603;-66
2022/03/22 09:47:18;;;;;;;;;28.75;23.25;;;;;14.73;33.27;102075.94;4936942;28;48160;-68
2022/03/22 09:49:44;;;;;;;;;24.25;21.50;;;;;14.81;33.02;102080.13;4937476;28;45263;-73
2022/03/22 09:52:11;;;;;;;;;26.50;23.25;;;;;14.87;32.57;102080.78;4937925;28;45314;-71
2022/03/22 09:54:38;;;;;;;;;23.75;21.25;;;;;14.93;32.37;102079.72;4940004;28;45456;-68
2022/03/22 09:57:05;;;;;;;;;20.25;19.25;;;;;14.97;32.42;102070.75;4941197;28;46073;-67
2022/03/22 09:59:34;;;;;;;;;29.50;27.75;;;;;15.08;32.56;102072.16;4939314;28;45402;-69
2022/03/22 10:02:00;;;;;;;;;20.25;19.50;;;;;15.16;31.86;102078.03;4938132;28;45367;-72
2022/03/22 10:04:36;;;;;;;;;26.75;20.75;;;;;15.28;31.63;102076.72;4954764;28;45410;-71
2022/03/22 10:07:03;;;;;;;;;26.25;24.75;;;;;15.34;31.67;102073.84;4939761;28;47326;-68
2022/03/22 10:09:36;;;;;;;;;28.50;24.25;;;;;15.44;31.33;102074.38;4941312;28;45405;-70
2022/03/22 10:12:03;;;;;;;;;23.00;21.25;;;;;15.50;31.26;102070.66;4940250;28;45334;-68
2022/03/22 10:14:39;;;;;;;;;24.00;20.75;;;;;15.58;31.22;102072.06;4939280;28;45602;-71
2022/03/22 10:17:09;;;;;;;;;20.00;17.50;;;;;15.65;31.05;102067.41;4938514;28;45355;-69
2022/03/22 10:19:50;;;;;;;;;20.25;20.00;;;;;15.73;30.54;102064.47;4938606;28;45366;-63
2022/03/22 10:22:21;;;;;;;;;23.75;21.00;;;;;15.78;30.70;102067.81;4938369;28;45382;-73
2022/03/22 10:24:49;;;;;;;;;23.75;19.25;;;;;15.88;30.71;102055.94;4938497;28;45320;-73
2022/03/22 10:27:21;;;;;;;;;22.50;19.75;;;;;16.00;31.06;102064.38;4939420;28;48053;-74
2022/03/22 10:29:47;;;;;;;;;25.75;22.75;;;;;16.06;29.98;102056.16;4954278;28;45369;-72
2022/03/22 10:32:12;;;;;;;;;23.00;21.75;;;;;16.09;30.10;102066.66;4938295;28;45442;-72
2022/03/22 10:34:38;;;;;;;;;22.25;20.00;;;;;16.13;29.56;102060.31;4938775;28;45322;-72
2022/03/22 10:37:04;;;;;;;;;20.50;17.00;;;;;16.15;29.80;102055.78;4938732;28;46288;-73
2022/03/22 10:39:29;;;;;;;;;20.50;17.50;;;;;16.24;29.05;102074.94;4938350;28;45410;-68
2022/03/22 10:42:05;;;;;;;;;20.50;18.50;;;;;16.28;29.48;102057.94;4952646;28;45446;-72
2022/03/22 10:44:38;;;;;;;;;23.00;20.00;;;;;16.39;28.98;102060.16;4953502;28;45406;-64
2022/03/22 10:47:07;;;;;;;;;18.75;17.75;;;;;16.44;28.80;102055.53;4938268;28;45812;-64
2022/03/22 10:49:33;;;;;;;;;24.00;20.25;;;;;16.45;29.02;102047.50;4937680;28;45295;-62
2022/03/22 10:51:58;;;;;;;;;22.25;19.25;;;;;16.55;29.29;102048.00;4938013;28;45323;-69
2022/03/22 10:54:24;;;;;;;;;18.75;18.25;;;;;16.63;28.77;102050.31;4937773;28;45297;-70
2022/03/22 10:56:55;;;;;;;;;25.25;22.00;;;;;16.74;29.17;102045.38;4937900;28;46009;-75
2022/03/22 10:59:23;;;;;;;;;23.00;22.00;;;;;16.82;29.54;102049.50;4938164;28;45397;-73
2022/03/22 11:01:49;;;;;;;;;24.25;21.50;;;;;16.96;28.85;102049.78;4938019;28;45403;-71
2022/03/22 11:04:16;;;;;;;;;23.25;22.25;;;;;17.04;28.86;102038.84;4938176;28;45565;-71
2022/03/22 11:06:47;;;;;;;;;48.25;34.75;;;;;17.15;28.86;102044.53;4937787;28;46175;-64
2022/03/22 11:09:16;;;;;;;;;22.25;20.25;;;;;17.23;28.44;102038.91;4938886;28;45469;-63
2022/03/22 11:11:43;;;;;;;;;22.50;21.00;;;;;17.34;28.68;102035.72;4939940;28;45358;-74
2022/03/22 11:14:12;;;;;;;;;27.00;24.00;;;;;17.45;28.54;102036.09;4939642;28;45457;-61
2022/03/22 11:16:39;;;;;;;;;25.50;22.25;;;;;17.54;28.44;102040.16;4938682;28;46510;-59
2022/03/22 11:19:05;;;;;;;;;25.75;23.75;;;;;17.63;28.04;102033.53;4938295;28;45273;-66
2022/03/22 11:21:31;;;;;;;;;21.50;19.50;;;;;17.66;27.55;102018.28;4937561;28;45212;-64
2022/03/22 11:24:11;;;;;;;;;25.75;21.50;;;;;17.71;27.21;102031.38;4937576;28;45474;-73
2022/03/22 11:26:43;;;;;;;;;23.75;21.25;;;;;17.69;27.55;102017.28;4938934;28;46328;-69
2022/03/22 11:29:11;;;;;;;;;24.50;22.00;;;;;17.75;28.00;102008.13;4953451;28;45295;-65
2022/03/22 11:31:39;;;;;;;;;17.25;13.75;;;;;17.91;27.67;102018.91;4938011;28;45397;-71
2022/03/22 11:34:09;;;;;;;;;31.00;26.50;;;;;18.04;27.25;102022.75;4938137;28;45466;-71
2022/03/22 11:36:41;;;;;;;;;24.75;23.00;;;;;18.11;27.23;102018.00;4937938;28;45390;-69